Latest Coastal Weather Observations for Moruya Airport

IDN60701

Issued at 12:52 am EST Wednesday 29 June 2016 (issued every 10 minutes, with the page automatically refreshed every 10 minutes)

About coastal observations | Map of coastal stations | Coastal observations for NSW | Marine services | Other Formats
Station Details ID: 069148 Name: MORUYA AIRPORT AWS Lat: -35.90 Lon: 150.14 Height: 4.0 m
Data from the previous 72 hours. | See also: Recent months at Moruya Airport
Date/Time
EST
Temp
°C
Wind Pressure Rain since
9am
mm
Weather Cloud Vis
km
Sea
Height
m
Swell
Dir  Spd
kts
Gust
kts
hPa Trend Height
m
Period
s
Dir
29/12:30am 2.9 CALM 0 0 1025.8 - 0.0 - - 10 - - - -
29/12:00am 2.9 CALM 0 0 1025.9 - 0.0 - - 10 - - - -
 
Date/Time
EST
Temp
°C
Wind Pressure Rain since
9am
mm
Weather Cloud Vis
km
Sea
Height
m
Swell
Dir  Spd
kts
Gust
kts
hPa Trend Height
m
Period
s
Dir
28/11:30pm 3.1 CALM 0 0 1026.1 - 0.0 - - 10 - - - -
28/11:00pm 4.1 W 1 3 1026.1 - 0.0 - - 10 - - - -
28/10:30pm 4.5 W 3 6 1026.0 - 0.0 - - 10 - - - -
28/10:00pm 4.1 WNW 3 4 1026.0 - 0.0 - - 10 - - - -
28/09:30pm 5.1 W 4 5 1025.7 - 0.0 - - 10 - - - -
28/09:00pm 5.5 WNW 3 4 1025.7 - 0.0 - - 10 - - - -
28/08:30pm 5.6 W 4 5 1025.7 - 0.0 - - 10 - - - -
28/08:00pm 6.0 W 5 6 1025.5 - 0.0 - - 10 - - - -
28/07:30pm 5.8 W 4 5 1025.4 - 0.0 - - 10 - - - -
28/07:00pm 5.6 W 4 5 1025.2 - 0.0 - - 10 - - - -
28/06:30pm 6.2 CALM 0 0 1024.9 - 0.0 - - 10 - - - -
28/06:00pm 7.5 CALM 0 0 1024.5 - 0.0 - - 10 - - - -
28/05:30pm 8.1 CALM 0 0 1024.2 - 0.0 - - 10 - - - -
28/05:00pm 9.6 CALM 0 0 1023.9 - 0.0 - - 10 - - - -
28/04:30pm 12.0 N 1 3 1023.7 - 0.0 - - 10 - - - -
28/04:00pm 15.7 NE 3 5 1023.4 - 0.0 - - 10 - - - -
28/03:30pm 16.0 NE 5 7 1023.1 - 0.0 - - 10 - - - -
28/03:00pm 16.1 ENE 5 7 1022.9 - 0.0 - - 10 - - - -
28/02:30pm 16.5 NNE 5 7 1022.6 - 0.0 - - 10 - - - -
28/02:00pm 16.7 ENE 3 5 1022.5 - 0.0 - - 10 - - - -
28/01:30pm 16.8 WNW 2 6 1022.6 - 0.0 - - 10 - - - -
28/01:00pm 16.0 SSW 5 8 1022.7 - 0.0 - - 10 - - - -
28/12:30pm 16.3 W 5 7 1022.9 - 0.0 - - 10 - - - -
28/12:00pm 15.5 WSW 6 10 1023.1 - 0.0 - - 10 - - - -
28/11:30am 14.6 WSW 7 9 1023.4 - 0.0 - - 10 - - - -
28/11:00am 14.2 W 6 8 1023.7 - 0.0 - - 10 - - - -
28/10:30am 12.9 W 6 9 1023.8 - 0.0 - - 10 - - - -
28/10:00am 11.5 W 7 10 1023.8 - 0.0 - - 10 - - - -
28/09:30am 9.8 W 7 10 1023.7 - 0.0 - - 10 - - - -
28/09:00am 7.8 WSW 6 8 1023.4 - 0.0 - - 10 - - - -
28/08:30am 6.1 W 4 6 1023.0 - 0.0 - - 10 - - - -
28/08:00am 3.9 W 4 6 1022.7 - 0.0 - - 10 - - - -
28/07:30am 1.7 W 3 7 1022.3 - 0.0 - - 10 - - - -
28/07:21am 1.4 WNW 3 5 1022.2 - 0.0 - - 10 - - - -
28/07:04am 2.1 SW 1 4 1021.9 - 0.0 - - 5 - - - -
28/07:00am 2.0 SW 2 4 1021.9 - 0.0 - - 10 - - - -
28/06:30am 1.9 W 5 6 1021.4 - 0.0 - - 10 - - - -
28/06:00am 2.3 WSW 4 5 1020.7 - 0.0 - - 10 - - - -
28/05:30am 2.8 WSW 4 4 1020.5 - 0.0 - - 10 - - - -
28/05:00am 2.5 WSW 4 6 1020.1 - 0.0 - - 10 - - - -
28/04:57am 2.7 WSW 5 6 1020.0 - 0.0 - - 10 - - - -
28/04:38am 2.5 WSW 3 5 1019.8 - 0.0 - - 5 - - - -
28/04:30am 2.5 WSW 3 5 1019.8 - 0.0 - - 10 - - - -
28/04:00am 2.6 WSW 4 5 1019.6 - 0.0 - - 7 - - - -
28/03:54am 2.7 WSW 4 5 1019.5 - 0.0 - - 10 - - - -
28/03:35am 2.7 W 3 4 1019.4 - 0.0 - - 5 - - - -
28/03:30am 3.5 W 3 5 1019.3 - 0.0 - - 10 - - - -
28/03:00am 3.5 WSW 4 6 1019.2 - 0.0 - - 10 - - - -
28/02:30am 3.9 WSW 4 5 1019.3 - 0.0 - - 10 - - - -
28/02:00am 4.1 WSW 4 5 1019.1 - 0.0 - - 10 - - - -
28/01:30am 4.3 W 5 6 1018.8 - 0.0 - - 10 - - - -
28/01:00am 4.2 WSW 5 6 1018.7 - 0.0 - - 10 - - - -
28/12:30am 4.6 W 4 5 1018.5 - 0.0 - - 10 - - - -
28/12:00am 4.8 W 3 4 1018.6 - 0.0 - - 10 - - - -
 
Date/Time
EST
Temp
°C
Wind Pressure Rain since
9am
mm
Weather Cloud Vis
km
Sea
Height
m
Swell
Dir  Spd
kts
Gust
kts
hPa Trend Height
m
Period
s
Dir
27/11:30pm 5.0 W 3 4 1018.5 - 0.0 - - 10 - - - -
27/11:00pm 5.3 WSW 2 4 1018.4 - 0.0 - - 10 - - - -
27/10:30pm 6.6 W 3 4 1018.5 - 0.0 - - 10 - - - -
27/10:00pm 7.0 WSW 4 5 1018.4 - 0.0 - - 10 - - - -
27/09:30pm 7.8 WSW 5 7 1018.0 - 0.0 - - 10 - - - -
27/09:00pm 7.9 WSW 4 6 1017.7 - 0.0 - - 10 - - - -
27/08:30pm 8.7 W 5 6 1017.6 - 0.0 - - 10 - - - -
27/08:00pm 7.5 WNW 4 5 1017.6 - 0.0 - - 10 - - - -
27/07:30pm 9.0 WSW 4 6 1017.4 - 0.0 - - 10 - - - -
27/07:00pm 8.8 WSW 5 7 1017.0 - 0.0 - - 10 - - - -
27/06:30pm 8.4 WSW 5 6 1016.8 - 0.0 - - 10 - - - -
27/06:00pm 9.3 WSW 4 6 1016.3 - 0.0 - Mostly cloudy 10 - - - -
27/05:30pm 9.4 WSW 5 6 1015.7 - 0.0 - - 10 - - - -
27/05:00pm 10.4 WSW 4 6 1015.3 - 0.0 - - 10 - - - -
27/04:30pm 12.3 SSW 6 8 1015.0 - 0.0 - - 10 - - - -
27/04:00pm 13.4 S 6 7 1014.5 - 0.0 - Partly cloudy 10 - - - -
27/03:30pm 13.0 WSW 4 5 1014.4 - 0.0 - Partly cloudy 10 - - - -
27/03:00pm 13.0 W 3 6 1014.2 - 0.0 - Mostly cloudy 10 - - - -
27/02:30pm 12.8 SSW 5 7 1013.9 - 0.0 - Partly cloudy 10 - - - -
27/02:00pm 12.6 SW 5 7 1013.8 - 0.0 - Cloudy 10 - - - -
27/01:30pm 12.2 SSW 6 9 1013.9 - 0.0 - Cloudy 10 - - - -
27/01:00pm 12.4 SSW 9 11 1013.9 - 0.0 - Partly cloudy 10 - - - -
27/12:30pm 13.0 SSW 9 13 1014.0 - 0.0 - - 10 - - - -
27/12:00pm 13.1 SW 9 13 1014.1 - 0.0 - Partly cloudy 10 - - - -
27/11:30am 12.9 SW 9 12 1014.4 - 0.0 - - 10 - - - -
27/11:00am 12.7 SW 8 12 1014.6 - 0.0 - Partly cloudy 10 - - - -
27/10:30am 11.3 WSW 7 9 1014.8 - 0.0 - - 10 - - - -
27/10:00am 10.7 W 6 8 1014.7 - 0.0 - Partly cloudy 10 - - - -
27/09:30am 9.8 W 5 7 1014.9 - 0.0 - Cloudy 10 - - - -
27/09:00am 8.6 WSW 5 6 1014.8 - 0.0 - Mostly cloudy 10 - - - -
27/08:30am 7.4 WSW 5 7 1014.7 - 0.0 - Partly cloudy 10 - - - -
27/08:00am 6.7 WSW 6 8 1014.5 - 0.0 - Partly cloudy 10 - - - -
27/07:30am 6.8 W 5 8 1014.4 - 0.0 - Cloudy 10 - - - -
27/07:00am 6.7 WSW 5 7 1014.2 - 0.0 - Cloudy 10 - - - -
27/06:30am 6.3 WSW 5 8 1014.1 - 0.0 - Cloudy 10 - - - -
27/06:00am 5.7 CALM 0 0 1013.9 - 0.0 - Cloudy 10 - - - -
27/05:30am 6.3 WSW 3 5 1013.7 - 0.0 - - 10 - - - -
27/05:00am 6.4 W 3 4 1013.5 - 0.0 - - 10 - - - -
27/04:30am 6.3 WSW 6 8 1013.3 - 0.0 - - 10 - - - -
27/04:00am 5.5 WSW 4 7 1013.5 - 0.0 - - 10 - - - -
27/03:30am 5.6 W 3 3 1013.6 - 0.0 - - 10 - - - -
27/03:00am 5.7 CALM 0 0 1013.8 - 0.0 - Cloudy 10 - - - -
27/02:30am 5.9 SW 3 4 1014.4 - 0.0 - - 10 - - - -
27/02:00am 5.8 CALM 0 0 1014.7 - 0.0 - - 10 - - - -
27/01:30am 6.0 CALM 0 0 1014.4 - 0.0 - - 10 - - - -
27/01:00am 5.8 WNW 2 5 1014.5 - 0.0 - - 10 - - - -
27/12:30am 5.9 WSW 4 5 1014.7 - 0.0 - - 10 - - - -
27/12:00am 5.9 CALM 0 0 1014.7 - 0.0 - Cloudy 10 - - - -
 
Date/Time
EST
Temp
°C
Wind Pressure Rain since
9am
mm
Weather Cloud Vis
km
Sea
Height
m
Swell
Dir  Spd
kts
Gust
kts
hPa Trend Height
m
Period
s
Dir
26/11:30pm 6.4 W 1 3 1015.0 - 0.0 - - 10 - - - -
26/11:00pm 6.2 CALM 0 4 1015.2 - 0.0 - - 10 - - - -
26/10:30pm 6.3 CALM 0 0 1015.5 - 0.0 - - 10 - - - -
26/10:00pm 6.6 W 3 3 1015.7 - 0.0 - - 10 - - - -
26/09:30pm 7.0 W 3 4 1016.0 - 0.0 - - 10 - - - -
26/09:00pm 6.7 CALM 0 0 1016.1 - 0.0 - Cloudy 10 - - - -
26/08:30pm 7.2 CALM 0 3 1016.6 - 0.0 - - 10 - - - -
26/08:00pm 6.2 W 2 3 1016.7 - 0.0 - - 10 - - - -
26/07:30pm 6.1 W 3 4 1016.8 - 0.0 - - 10 - - - -
26/07:00pm 7.2 W 3 4 1016.6 - 0.0 - - 10 - - - -
26/06:30pm 7.7 WNW 4 5 1016.6 - 0.0 - - 10 - - - -
26/06:00pm 8.0 CALM 0 0 1016.3 - 0.0 - Mostly clear 10 - - - -
26/05:30pm 9.1 NW 4 5 1016.2 - 0.0 - - 10 - - - -
26/05:00pm 10.5 NW 4 5 1016.2 - 0.0 - - 10 - - - -
26/04:30pm 12.2 NNW 3 4 1016.1 - 0.0 - - 10 - - - -
26/04:00pm 13.6 NNW 4 5 1016.2 - 0.0 - - 10 - - - -
26/03:30pm 13.9 NW 1 4 1016.2 - 0.0 - - 10 - - - -
26/03:00pm 14.0 CALM 0 0 1016.7 - 0.0 - Mostly clear 10 - - - -
26/02:30pm 14.2 CALM 0 0 1016.8 - 0.0 - - 10 - - - -
26/02:00pm 14.4 CALM 0 0 1016.9 - 0.0 - - 10 - - - -
26/01:30pm 14.2 W 3 4 1017.2 - 0.0 - - 10 - - - -
26/01:00pm 14.4 WNW 3 5 1017.2 - 0.0 - - 10 - - - -
26/12:30pm 15.1 W 3 5 1017.5 - 0.0 - - 10 - - - -
26/12:00pm 14.0 SW 5 6 1018.4 - 0.0 - - 10 - - - -
26/11:30am 14.1 SW 5 7 1019.1 - 0.0 - - 10 - - - -
26/11:00am 13.9 WSW 5 8 1019.6 - 0.0 - - 10 - - - -
26/10:30am 12.6 WSW 5 8 1020.1 - 0.0 - - 10 - - - -
26/10:00am 12.1 WSW 5 7 1020.4 - 0.0 - - 10 - - - -
26/09:30am 11.7 WSW 5 7 1020.2 - 0.0 - - 10 - - - -
26/09:00am 9.7 WSW 5 8 1020.1 - 0.0 - - 10 - - - -
26/08:30am 8.4 WSW 5 7 1019.9 - 0.0 - - 10 - - - -
26/08:00am 6.6 W 4 5 1020.0 - 0.0 - - 10 - - - -
26/07:30am 4.7 WSW 5 6 1019.9 - 0.0 - - 10 - - - -
26/07:00am 5.4 W 5 6 1019.8 - 0.0 - - 10 - - - -
26/06:30am 6.1 WSW 6 9 1019.5 - 0.0 - - 10 - - - -
26/06:00am 6.1 W 6 8 1019.4 - 0.0 - - 10 - - - -
26/05:30am 6.2 W 6 10 1019.2 - 0.0 - - 10 - - - -
26/05:00am 6.3 W 7 9 1019.1 - 0.0 - Partly cloudy 10 - - - -
26/04:30am 5.7 WSW 6 8 1019.0 - 0.0 - - 10 - - - -
26/04:00am 6.0 W 6 9 1019.1 - 0.0 - - 10 - - - -
26/03:30am 5.4 W 6 8 1019.3 - 0.0 - - 10 - - - -
26/03:00am 5.1 W 5 7 1019.4 - 0.0 - - 10 - - - -
26/02:30am 5.5 W 5 7 1019.7 - 0.0 - - 10 - - - -
26/02:00am 5.6 W 5 8 1019.7 - 0.0 - - 10 - - - -
26/01:30am 4.9 W 5 7 1019.8 - 0.0 - - 10 - - - -
26/01:00am 4.4 WNW 3 4 1019.5 - 0.0 - - 10 - - - -

Other Formats:

Comma delimited format used in spreadsheet applications
http://www.bom.gov.au/fwo/IDN60701/IDN60701.95937.axf

JavaScript Object Notation format (JSON) in row-major order
http://www.bom.gov.au/fwo/IDN60701/IDN60701.95937.json